createdAt,value
2023-04-06T00:01:14.964Z,99730.56
2023-04-06T00:03:46.787Z,99735.88
2023-04-06T00:06:18.544Z,99730.03
2023-04-06T00:08:50.609Z,99730.97
2023-04-06T00:11:22.544Z,99729.44
2023-04-06T00:13:58.969Z,99735.78
2023-04-06T00:16:31.108Z,99733.31
2023-04-06T00:19:02.972Z,99737.78
2023-04-06T00:21:34.875Z,99738.72
2023-04-06T00:24:06.752Z,99724.00
2023-04-06T00:26:38.815Z,99726.63
2023-04-06T00:29:10.937Z,99731.13
2023-04-06T00:31:45.849Z,99726.84
2023-04-06T00:34:17.472Z,99725.16
2023-04-06T00:36:49.252Z,99718.38
2023-04-06T00:39:23.958Z,99714.13
2023-04-06T00:41:57.614Z,99712.56
2023-04-06T00:44:29.434Z,99710.28
2023-04-06T00:47:01.167Z,99712.91
2023-04-06T00:49:33.735Z,99711.41
2023-04-06T00:52:05.956Z,99705.59
2023-04-06T00:54:40.473Z,99709.22
2023-04-06T00:57:14.672Z,99703.41
2023-04-06T00:59:48.190Z,99702.56
2023-04-06T01:02:20.387Z,99702.81
2023-04-06T01:04:58.130Z,99709.13
2023-04-06T01:07:45.269Z,99711.31
2023-04-06T01:10:36.387Z,99708.50
2023-04-06T01:13:16.759Z,99709.66
2023-04-06T01:15:58.181Z,99710.69
2023-04-06T01:18:49.651Z,99711.53
2023-04-06T01:21:24.907Z,99715.81
2023-04-06T01:24:09.879Z,99707.25
2023-04-06T01:27:04.859Z,99707.16
2023-04-06T01:29:52.268Z,99701.13
2023-04-06T01:32:42.947Z,99709.84
2023-04-06T01:35:20.021Z,99708.41
2023-04-06T01:38:02.364Z,99706.72
2023-04-06T01:40:44.068Z,99710.50
2023-04-06T01:43:15.847Z,99709.97
2023-04-06T01:46:06.173Z,99699.66
2023-04-06T01:48:42.746Z,99701.41
2023-04-06T01:51:25.739Z,99702.34
2023-04-06T01:54:05.458Z,99707.78
2023-04-06T01:56:46.668Z,99702.75
2023-04-06T01:59:32.044Z,99699.53
2023-04-06T02:02:06.962Z,99697.34
2023-04-06T02:04:41.746Z,99700.13
2023-04-06T02:07:17.203Z,99700.25
2023-04-06T02:09:56.568Z,99705.53
2023-04-06T02:12:36.224Z,99704.72
2023-04-06T02:15:09.930Z,99706.47
2023-04-06T02:17:42.411Z,99701.38
2023-04-06T02:20:15.001Z,99694.63
2023-04-06T02:22:49.248Z,99695.63
2023-04-06T02:25:21.148Z,99702.59
2023-04-06T02:27:52.971Z,99702.59
2023-04-06T02:30:24.735Z,99701.88
2023-04-06T02:32:56.594Z,99689.81
2023-04-06T02:35:32.823Z,99692.50
2023-04-06T02:38:04.710Z,99694.25
2023-04-06T02:40:36.507Z,99696.03
2023-04-06T02:43:21.001Z,99698.63
2023-04-06T02:45:55.935Z,99699.78
2023-04-06T02:48:29.480Z,99700.09
2023-04-06T02:51:04.415Z,99694.97
2023-04-06T02:53:36.682Z,99690.59
2023-04-06T02:56:08.805Z,99697.66
2023-04-06T02:59:04.407Z,99691.63
2023-04-06T03:01:40.477Z,99697.03
2023-04-06T03:04:12.491Z,99696.38
2023-04-06T03:06:48.029Z,99692.94
2023-04-06T03:09:32.440Z,99699.19
2023-04-06T03:12:09.764Z,99704.41
2023-04-06T03:15:02.332Z,99699.28
2023-04-06T03:17:38.829Z,99702.94
2023-04-06T03:20:17.067Z,99702.09
2023-04-06T03:22:51.905Z,99694.47
2023-04-06T03:25:31.440Z,99699.78
2023-04-06T03:28:07.084Z,99706.03
2023-04-06T03:30:44.271Z,99700.06
2023-04-06T03:33:20.815Z,99703.59
2023-04-06T03:36:00.470Z,99702.78
2023-04-06T03:38:34.588Z,99706.31
2023-04-06T03:41:10.244Z,99697.78
2023-04-06T03:43:47.784Z,99697.88
2023-04-06T03:46:25.684Z,99705.88
2023-04-06T03:49:02.990Z,99714.69
2023-04-06T03:51:36.916Z,99720.81
2023-04-06T03:54:08.847Z,99723.53
2023-04-06T03:56:42.339Z,99725.47
2023-04-06T03:59:18.123Z,99718.03
2023-04-06T04:01:52.103Z,99718.88
2023-04-06T04:04:23.895Z,99726.69
2023-04-06T04:06:55.663Z,99728.56
2023-04-06T04:09:29.728Z,99730.88
2023-04-06T04:12:01.997Z,99724.22
2023-04-06T04:14:40.674Z,99728.47
2023-04-06T04:17:13.869Z,99728.34
2023-04-06T04:19:45.570Z,99724.75
2023-04-06T04:22:20.328Z,99726.72
2023-04-06T04:24:52.282Z,99729.41
2023-04-06T04:27:24.301Z,99724.38
2023-04-06T04:29:57.557Z,99732.09
2023-04-06T04:32:29.332Z,99733.75
2023-04-06T04:35:04.459Z,99727.66
2023-04-06T04:37:42.379Z,99730.97
2023-04-06T04:40:15.521Z,99737.75
2023-04-06T04:43:05.350Z,99735.97
2023-04-06T04:45:39.683Z,99740.25
2023-04-06T04:48:33.638Z,99746.75
2023-04-06T04:51:08.200Z,99748.38
2023-04-06T04:54:07.547Z,99747.47
2023-04-06T04:56:39.351Z,99745.53
2023-04-06T04:59:25.529Z,99742.63
2023-04-06T05:02:04.103Z,99747.97
2023-04-06T05:04:45.920Z,99743.81
2023-04-06T05:07:25.487Z,99746.00
2023-04-06T05:10:02.127Z,99745.81
2023-04-06T05:12:42.551Z,99743.94
2023-04-06T05:15:16.352Z,99739.22
2023-04-06T05:17:54.341Z,99745.91
2023-04-06T05:20:31.728Z,99752.63
2023-04-06T05:23:04.417Z,99750.72
2023-04-06T05:25:36.591Z,99750.13
2023-04-06T05:28:19.529Z,99746.66
2023-04-06T05:30:55.903Z,99744.69
2023-04-06T05:33:28.466Z,99750.84
2023-04-06T05:36:08.191Z,99750.22
2023-04-06T05:38:47.001Z,99752.44
2023-04-06T05:41:31.816Z,99749.69
2023-04-06T05:44:03.435Z,99753.16
2023-04-06T05:46:36.266Z,99749.03
2023-04-06T05:49:10.074Z,99748.16
2023-04-06T05:51:42.225Z,99754.78
2023-04-06T05:54:13.899Z,99748.91
2023-04-06T05:56:46.669Z,99749.53
2023-04-06T05:59:18.670Z,99746.97
2023-04-06T06:01:54.117Z,99749.47
2023-04-06T06:04:27.059Z,99750.44
2023-04-06T06:07:00.401Z,99750.69
2023-04-06T06:10:04.451Z,99743.31
2023-04-06T06:12:39.385Z,99750.91
2023-04-06T06:15:12.156Z,99743.50
2023-04-06T06:17:51.611Z,99753.47
2023-04-06T06:20:23.475Z,99750.81
2023-04-06T06:22:55.364Z,99762.06
2023-04-06T06:25:28.490Z,99755.47
2023-04-06T06:28:00.765Z,99757.16
2023-04-06T06:30:38.410Z,99748.25
2023-04-06T06:33:13.978Z,99753.06
2023-04-06T06:35:46.027Z,99754.75
2023-04-06T06:38:23.518Z,99751.19
2023-04-06T06:40:59.055Z,99753.56
2023-04-06T06:43:34.494Z,99756.66
2023-04-06T06:46:14.746Z,99749.97
2023-04-06T06:48:49.317Z,99751.50
2023-04-06T06:51:21.105Z,99744.81
2023-04-06T06:53:52.965Z,99751.84
2023-04-06T06:56:24.721Z,99744.31
2023-04-06T06:58:58.520Z,99744.31
2023-04-06T07:01:30.968Z,99745.00
2023-04-06T07:04:05.087Z,99750.59
2023-04-06T07:06:40.156Z,99744.19
2023-04-06T07:09:12.548Z,99745.63
2023-04-06T07:11:45.557Z,99743.88
2023-04-06T07:14:17.925Z,99740.00
2023-04-06T07:16:51.664Z,99736.84
2023-04-06T07:19:26.577Z,99730.03
2023-04-06T07:21:58.811Z,99732.97
2023-04-06T07:24:31.595Z,99729.91
2023-04-06T07:27:03.945Z,99733.13
2023-04-06T07:29:36.538Z,99733.44
2023-04-06T07:32:11.511Z,99731.78
2023-04-06T07:34:43.401Z,99735.84
2023-04-06T07:37:17.975Z,99726.44
2023-04-06T07:39:53.872Z,99725.00
2023-04-06T07:42:26.015Z,99723.75
2023-04-06T07:44:57.899Z,99719.13
2023-04-06T07:47:33.194Z,99720.63
2023-04-06T07:50:06.313Z,99722.66
2023-04-06T07:52:38.606Z,99718.25
2023-04-06T07:55:10.923Z,99719.25
2023-04-06T07:57:42.608Z,99718.53
2023-04-06T08:00:21.055Z,99723.88
2023-04-06T08:02:55.830Z,99725.41
2023-04-06T08:05:30.963Z,99715.19
2023-04-06T08:08:02.823Z,99710.75
2023-04-06T08:10:35.541Z,99711.69
2023-04-06T08:13:09.378Z,99709.72
2023-04-06T08:15:41.381Z,99710.34
2023-04-06T08:18:16.508Z,99711.72
2023-04-06T08:20:49.762Z,99710.66
2023-04-06T08:23:21.539Z,99712.31
2023-04-06T08:25:55.251Z,99707.81
2023-04-06T08:28:27.380Z,99704.75
2023-04-06T08:31:00.518Z,99696.78
2023-04-06T08:33:33.556Z,99702.94
2023-04-06T08:36:21.245Z,99701.72
2023-04-06T08:38:53.467Z,99694.47
2023-04-06T08:41:25.232Z,99691.09
2023-04-06T08:44:02.193Z,99686.31
2023-04-06T08:46:34.552Z,99690.03
2023-04-06T08:49:09.325Z,99687.50
2023-04-06T08:51:48.698Z,99688.66
2023-04-06T08:54:20.447Z,99688.16
2023-04-06T08:56:54.158Z,99690.22
2023-04-06T08:59:26.816Z,99691.22
2023-04-06T09:02:04.894Z,99695.75
2023-04-06T09:04:38.031Z,99694.53
2023-04-06T09:07:12.404Z,99691.44
2023-04-06T09:09:50.585Z,99690.03
2023-04-06T09:12:29.626Z,99686.75
2023-04-06T09:15:02.255Z,99691.47
2023-04-06T09:17:37.852Z,99686.25
2023-04-06T09:20:10.431Z,99690.97
2023-04-06T09:22:45.524Z,99683.59
2023-04-06T09:25:22.366Z,99685.41
2023-04-06T09:28:05.658Z,99678.69
2023-04-06T09:30:37.562Z,99675.88
2023-04-06T09:33:09.501Z,99667.19
2023-04-06T09:35:50.591Z,99665.75
2023-04-06T09:38:22.496Z,99667.72
2023-04-06T09:41:01.375Z,99668.31
2023-04-06T09:43:33.641Z,99665.97
2023-04-06T09:46:05.775Z,99659.84
2023-04-06T09:48:38.870Z,99659.97
2023-04-06T09:51:16.047Z,99663.19
2023-04-06T09:53:53.086Z,99658.41
2023-04-06T09:56:28.823Z,99653.53
2023-04-06T09:59:14.004Z,99651.09
2023-04-06T10:01:48.467Z,99662.47
2023-04-06T10:04:34.122Z,99657.53
2023-04-06T10:07:16.659Z,99653.47
2023-04-06T10:09:49.448Z,99658.78
2023-04-06T10:12:25.735Z,99661.00
2023-04-06T10:14:57.680Z,99661.19
2023-04-06T10:17:29.494Z,99663.75
2023-04-06T10:20:10.059Z,99655.97
2023-04-06T10:23:17.026Z,99650.84
2023-04-06T10:25:56.054Z,99660.34
2023-04-06T10:28:36.882Z,99651.44
2023-04-06T10:31:12.194Z,99646.97
2023-04-06T10:33:55.753Z,99647.09
2023-04-06T10:36:34.777Z,99642.59
2023-04-06T10:39:07.557Z,99640.16
2023-04-06T10:41:45.787Z,99638.44
2023-04-06T10:44:26.927Z,99626.31
2023-04-06T10:47:02.536Z,99636.19
2023-04-06T10:49:34.352Z,99631.03
2023-04-06T10:52:07.333Z,99629.94
2023-04-06T10:54:45.093Z,99621.22
2023-04-06T10:57:16.878Z,99617.97
2023-04-06T10:59:48.604Z,99612.41
2023-04-06T11:02:22.814Z,99615.22
2023-04-06T11:04:58.442Z,99604.50
2023-04-06T11:07:31.237Z,99605.34
2023-04-06T11:12:38.309Z,99609.69
2023-04-06T11:15:11.462Z,99611.91
2023-04-06T11:17:43.539Z,99615.38
2023-04-06T11:20:15.667Z,99614.59
2023-04-06T11:22:52.111Z,99605.50
2023-04-06T11:25:32.362Z,99614.19
2023-04-06T11:28:04.215Z,99616.38
2023-04-06T11:30:36.640Z,99612.16
2023-04-06T11:33:08.639Z,99606.84
2023-04-06T11:35:40.966Z,99611.84
2023-04-06T11:38:12.801Z,99611.13
2023-04-06T11:40:47.303Z,99598.88
2023-04-06T11:43:19.203Z,99597.19
2023-04-06T11:45:53.286Z,99591.16
2023-04-06T11:48:26.532Z,99584.25
2023-04-06T11:51:02.509Z,99591.56
2023-04-06T11:53:46.481Z,99582.13
2023-04-06T11:56:34.527Z,99579.63
2023-04-06T11:59:06.286Z,99571.91
2023-04-06T12:01:46.546Z,99572.44
2023-04-06T12:04:18.884Z,99565.75
2023-04-06T12:06:50.705Z,99567.28
2023-04-06T12:09:22.532Z,99575.25
2023-04-06T12:11:54.368Z,99572.78
2023-04-06T12:14:26.241Z,99577.91
2023-04-06T12:16:59.141Z,99561.78
2023-04-06T12:22:15.478Z,99547.72
2023-04-06T12:24:47.903Z,99555.09
2023-04-06T12:27:20.785Z,99548.53
2023-04-06T12:29:52.533Z,99549.59
2023-04-06T12:32:24.288Z,99550.50
2023-04-06T12:34:58.934Z,99557.25
2023-04-06T12:37:31.353Z,99563.34
2023-04-06T12:40:04.200Z,99560.47
2023-04-06T12:42:36.112Z,99559.53
2023-04-06T12:45:09.048Z,99558.00
2023-04-06T12:47:40.847Z,99551.81
2023-04-06T12:50:12.728Z,99548.97
2023-04-06T12:52:48.470Z,99553.94
2023-04-06T12:55:21.672Z,99549.28
2023-04-06T12:57:53.458Z,99544.78
2023-04-06T13:00:25.498Z,99542.09
2023-04-06T13:02:57.446Z,99529.47
2023-04-06T13:05:30.390Z,99532.41
2023-04-06T13:08:03.621Z,99523.63
2023-04-06T13:10:36.586Z,99525.25
2023-04-06T13:13:08.382Z,99528.88
2023-04-06T13:15:40.473Z,99527.56
2023-04-06T13:18:12.772Z,99531.88
2023-04-06T13:20:44.592Z,99523.66
2023-04-06T13:23:17.061Z,99523.19
2023-04-06T13:25:49.137Z,99519.72
2023-04-06T13:28:20.931Z,99516.06
2023-04-06T13:30:53.084Z,99521.66
2023-04-06T13:33:24.840Z,99512.06
2023-04-06T13:35:57.144Z,99502.50
2023-04-06T13:38:29.172Z,99502.31
2023-04-06T13:41:01.214Z,99502.16
2023-04-06T13:43:32.968Z,99506.72
2023-04-06T13:46:04.885Z,99503.97
2023-04-06T13:48:36.651Z,99503.03
2023-04-06T13:51:15.032Z,99503.47
2023-04-06T13:56:42.000Z,99507.94
2023-04-06T13:59:13.723Z,99504.59
2023-04-06T14:01:46.003Z,99503.84
2023-04-06T14:04:18.179Z,99502.94
2023-04-06T14:06:49.922Z,99502.00
2023-04-06T14:09:21.758Z,99496.88
2023-04-06T14:11:54.051Z,99491.75
2023-04-06T14:14:25.859Z,99491.94
2023-04-06T14:16:57.915Z,99492.94
2023-04-06T14:19:30.241Z,99491.44
2023-04-06T14:22:01.988Z,99490.75
2023-04-06T14:24:37.822Z,99487.75
2023-04-06T14:27:12.549Z,99483.06
2023-04-06T14:29:44.217Z,99482.03
2023-04-06T14:32:16.212Z,99485.63
2023-04-06T14:34:48.446Z,99490.28
2023-04-06T14:37:21.618Z,99485.38
2023-04-06T14:39:53.408Z,99492.34
2023-04-06T14:42:26.228Z,99480.91
2023-04-06T14:45:01.201Z,99489.00
2023-04-06T14:47:33.134Z,99477.44
2023-04-06T14:50:05.983Z,99471.47
2023-04-06T14:52:38.488Z,99474.50
2023-04-06T14:55:10.531Z,99469.16
2023-04-06T14:57:42.229Z,99484.59
2023-04-06T15:00:15.626Z,99478.69
2023-04-06T15:02:49.540Z,99475.75
2023-04-06T15:05:21.370Z,99471.63
2023-04-06T15:07:53.053Z,99466.50
2023-04-06T15:10:27.913Z,99465.47
2023-04-06T15:13:06.134Z,99462.13
2023-04-06T15:15:42.771Z,99460.78
2023-04-06T15:18:14.488Z,99462.66
2023-04-06T15:20:46.331Z,99456.38
2023-04-06T15:23:18.835Z,99458.19
2023-04-06T15:25:50.702Z,99453.22
2023-04-06T15:28:22.943Z,99459.38
2023-04-06T15:30:56.874Z,99464.69
2023-04-06T15:33:29.666Z,99461.94
2023-04-06T15:36:07.850Z,99463.28
2023-04-06T15:38:39.639Z,99460.78
2023-04-06T15:41:15.117Z,99456.84
2023-04-06T15:43:47.337Z,99455.34
2023-04-06T15:46:21.036Z,99458.13
2023-04-06T15:48:53.780Z,99453.31
2023-04-06T15:51:26.829Z,99455.78
2023-04-06T15:53:58.984Z,99462.09
2023-04-06T15:56:33.601Z,99458.47
2023-04-06T15:59:08.361Z,99446.59
2023-04-06T16:01:43.858Z,99452.19
2023-04-06T16:04:15.858Z,99456.66
2023-04-06T16:06:52.170Z,99453.53
2023-04-06T16:09:23.972Z,99457.00
2023-04-06T16:11:56.821Z,99444.31
2023-04-06T16:14:31.271Z,99448.28
2023-04-06T16:17:03.170Z,99443.50
2023-04-06T16:19:34.965Z,99460.97
2023-04-06T16:22:07.371Z,99459.44
2023-04-06T16:24:39.120Z,99457.47
2023-04-06T16:27:10.975Z,99458.94
2023-04-06T16:29:45.210Z,99456.13
2023-04-06T16:32:17.010Z,99452.34
2023-04-06T16:34:48.782Z,99455.63
2023-04-06T16:37:24.989Z,99455.28
2023-04-06T16:39:57.219Z,99457.94
2023-04-06T16:42:28.939Z,99455.44
2023-04-06T16:45:01.685Z,99461.06
2023-04-06T16:47:33.512Z,99460.88
2023-04-06T16:50:06.650Z,99459.72
2023-04-06T16:52:42.536Z,99465.00
2023-04-06T16:55:16.185Z,99456.41
2023-04-06T16:57:49.347Z,99453.22
2023-04-06T17:00:22.878Z,99455.22
2023-04-06T17:02:54.875Z,99449.50
2023-04-06T17:05:27.593Z,99457.88
2023-04-06T17:08:01.627Z,99456.53
2023-04-06T17:10:37.284Z,99461.63
2023-04-06T17:13:14.539Z,99454.50
2023-04-06T17:15:46.639Z,99448.69
2023-04-06T17:18:18.687Z,99447.88
2023-04-06T17:20:52.467Z,99457.28
2023-04-06T17:23:25.980Z,99458.09
2023-04-06T17:26:08.380Z,99456.13
2023-04-06T17:28:40.770Z,99453.97
2023-04-06T17:31:12.800Z,99460.06
2023-04-06T17:33:46.846Z,99459.78
2023-04-06T17:36:20.632Z,99468.31
2023-04-06T17:38:53.889Z,99469.63
2023-04-06T17:41:26.633Z,99460.84
2023-04-06T17:43:58.403Z,99468.91
2023-04-06T17:46:30.564Z,99472.69
2023-04-06T17:49:02.283Z,99470.81
2023-04-06T17:51:34.130Z,99470.59
2023-04-06T17:54:06.074Z,99471.91
2023-04-06T17:56:42.615Z,99470.38
2023-04-06T17:59:14.590Z,99467.59
2023-04-06T18:01:46.443Z,99476.47
2023-04-06T18:04:21.280Z,99472.72
2023-04-06T18:06:53.038Z,99476.47
2023-04-06T18:09:31.066Z,99478.28
2023-04-06T18:12:03.369Z,99479.94
2023-04-06T18:14:35.107Z,99487.03
2023-04-06T18:17:06.827Z,99488.81
2023-04-06T18:19:44.096Z,99486.19
2023-04-06T18:22:19.664Z,99483.03
2023-04-06T18:24:51.868Z,99482.69
2023-04-06T18:27:26.500Z,99483.81
2023-04-06T18:30:01.062Z,99480.66
2023-04-06T18:32:32.875Z,99483.59
2023-04-06T18:35:11.337Z,99485.56
2023-04-06T18:37:43.224Z,99491.34
2023-04-06T18:40:41.506Z,99488.06
2023-04-06T18:43:16.238Z,99483.22
2023-04-06T18:45:48.030Z,99484.38
2023-04-06T18:48:19.793Z,99498.00
2023-04-06T18:50:57.684Z,99490.53
2023-04-06T18:53:30.814Z,99493.06
2023-04-06T18:56:21.913Z,99498.25
2023-04-06T18:58:54.163Z,99500.66
2023-04-06T19:01:40.914Z,99500.59
2023-04-06T19:04:13.215Z,99498.38
2023-04-06T19:06:45.029Z,99501.59
2023-04-06T19:09:16.802Z,99505.66
2023-04-06T19:11:50.878Z,99500.16
2023-04-06T19:14:22.653Z,99501.56
2023-04-06T19:16:58.529Z,99498.88
2023-04-06T19:19:30.289Z,99501.25
2023-04-06T19:22:04.872Z,99500.88
2023-04-06T19:24:37.057Z,99501.97
2023-04-06T19:27:09.609Z,99506.69
2023-04-06T19:29:41.361Z,99503.38
2023-04-06T19:32:13.325Z,99506.72
2023-04-06T19:34:45.189Z,99504.00
2023-04-06T19:37:23.619Z,99506.53
2023-04-06T19:39:55.928Z,99502.53
2023-04-06T19:42:30.492Z,99505.59
2023-04-06T19:45:07.719Z,99505.16
2023-04-06T19:47:39.549Z,99510.88
2023-04-06T19:50:11.606Z,99504.94
2023-04-06T19:52:43.382Z,99502.19
2023-04-06T19:55:15.062Z,99507.88
2023-04-06T19:57:47.179Z,99514.34
2023-04-06T20:00:22.822Z,99509.66
2023-04-06T20:02:54.620Z,99506.50
2023-04-06T20:05:26.427Z,99503.34
2023-04-06T20:07:58.157Z,99509.69
2023-04-06T20:10:29.875Z,99509.41
2023-04-06T20:13:02.844Z,99514.28
2023-04-06T20:15:34.635Z,99508.31
2023-04-06T20:18:06.478Z,99514.81
2023-04-06T20:20:39.402Z,99512.50
2023-04-06T20:23:12.710Z,99515.50
2023-04-06T20:25:44.745Z,99525.72
2023-04-06T20:28:16.837Z,99521.03
2023-04-06T20:30:52.697Z,99513.56
2023-04-06T20:33:24.803Z,99516.50
2023-04-06T20:36:01.244Z,99520.63
2023-04-06T20:38:33.934Z,99510.56
2023-04-06T20:41:07.664Z,99518.97
2023-04-06T20:43:39.592Z,99527.25
2023-04-06T20:46:16.283Z,99522.25
2023-04-06T20:48:48.193Z,99519.22
2023-04-06T20:51:24.564Z,99516.19
2023-04-06T20:54:03.696Z,99510.50
2023-04-06T20:56:35.432Z,99517.53
2023-04-06T20:59:07.243Z,99510.84
2023-04-06T21:01:40.239Z,99513.75
2023-04-06T21:04:12.570Z,99513.34
2023-04-06T21:06:47.488Z,99519.00
2023-04-06T21:09:20.254Z,99509.59
2023-04-06T21:11:52.111Z,99519.53
2023-04-06T21:14:24.184Z,99520.72
2023-04-06T21:16:56.319Z,99515.06
2023-04-06T21:19:28.119Z,99523.34
2023-04-06T21:22:00.250Z,99518.09
2023-04-06T21:24:32.064Z,99521.25
2023-04-06T21:27:03.854Z,99523.97
2023-04-06T21:29:41.008Z,99524.25
2023-04-06T21:32:21.888Z,99522.00
2023-04-06T21:34:54.071Z,99519.66
2023-04-06T21:37:27.242Z,99517.56
2023-04-06T21:39:59.253Z,99517.69
2023-04-06T21:42:31.908Z,99517.16
2023-04-06T21:45:04.291Z,99514.66
2023-04-06T21:47:36.470Z,99510.75
2023-04-06T21:50:08.615Z,99511.16
2023-04-06T21:52:40.504Z,99512.38
2023-04-06T21:55:12.338Z,99505.63
2023-04-06T21:57:45.042Z,99506.69
2023-04-06T22:00:20.262Z,99509.56
2023-04-06T22:02:52.347Z,99516.88
2023-04-06T22:05:24.449Z,99519.03
2023-04-06T22:08:04.339Z,99510.50
2023-04-06T22:10:40.644Z,99514.28
2023-04-06T22:13:13.101Z,99511.00
2023-04-06T22:15:44.868Z,99510.16
2023-04-06T22:18:16.669Z,99511.00
2023-04-06T22:20:48.864Z,99498.88
2023-04-06T22:23:23.082Z,99505.16
2023-04-06T22:25:58.028Z,99509.00
2023-04-06T22:28:29.743Z,99502.94
2023-04-06T22:31:01.431Z,99508.44
2023-04-06T22:33:33.174Z,99499.06
2023-04-06T22:36:05.895Z,99505.13
2023-04-06T22:38:38.107Z,99500.84
2023-04-06T22:41:10.470Z,99499.19
2023-04-06T22:43:42.213Z,99497.53
2023-04-06T22:46:16.819Z,99503.13
2023-04-06T22:48:48.544Z,99496.50
2023-04-06T22:51:23.437Z,99498.69
2023-04-06T22:53:54.974Z,99490.13
2023-04-06T22:56:27.187Z,99494.66
2023-04-06T22:59:01.755Z,99486.94
2023-04-06T23:01:33.648Z,99495.03
2023-04-06T23:04:05.971Z,99492.69
2023-04-06T23:06:39.760Z,99488.28
2023-04-06T23:09:11.566Z,99492.69
2023-04-06T23:11:43.654Z,99488.66
2023-04-06T23:14:16.189Z,99493.28
2023-04-06T23:16:48.551Z,99487.50
2023-04-06T23:19:20.551Z,99487.72
2023-04-06T23:21:52.538Z,99485.22
2023-04-06T23:24:28.428Z,99497.75
2023-04-06T23:27:08.792Z,99498.56
2023-04-06T23:29:44.499Z,99494.28
2023-04-06T23:32:19.051Z,99494.28
2023-04-06T23:34:51.002Z,99494.69
2023-04-06T23:37:22.737Z,99490.41
2023-04-06T23:39:54.432Z,99489.94
2023-04-06T23:42:28.954Z,99484.00
2023-04-06T23:45:05.764Z,99486.50
2023-04-06T23:47:37.643Z,99479.50
2023-04-06T23:50:09.753Z,99476.66
2023-04-06T23:52:41.448Z,99480.03
2023-04-06T23:55:13.189Z,99471.00
2023-04-06T23:57:45.536Z,99466.66
